Station info - map view · info · telemetry · weather · raw · status · beacons · messages · bulletins · browse · moving · my account
Callsign, ship name or locator: Clear       
It is possible to search using wildcards (*?) after a prefix. Example: OH*
APRS station K0RPD-7 - show graphs
Map loading...
Mic-E message: En route
Location: 43°55.70' N 92°28.60' W - locator EN33SW22TT - show map - static map
5.1 miles North bearing 7° from Stewartville, Olmsted County, Minnesota, United States [?]
6.5 miles South bearing 183° from Rochester, Olmsted County, Minnesota, United States
76.5 miles Southeast bearing 156° from Saint Paul, Ramsey County, Minnesota, United States
82.3 miles Southeast bearing 152° from Minneapolis, Hennepin County, Minnesota, United States
Last position: 2020-03-03 23:42:25 EST (27d 13h39m ago)
2020-03-03 22:42:25 CST local time at Stewartville, United States [?]
Altitude: 1280 ft
Course: 323°
Speed: 0 MPH
Device: Yaesu: FT1D (ht)
Last path: K0RPD-7>TS5U7P via W0MXW-3,WIDE1*,WIDE2-1,qAR,W0NE-1 (good)
Positions stored: 1937
Other SSIDs: K0RPD K0RPD-9
Stations near current position of K0RPD-7 - show more
callsign distance last heard - EDT      callsign distance last heard - EDT
K0RPD-914.9 yards 90°2020-03-30 19:07:57 W0STV-31.7 miles 22°2020-03-27 11:29:42
K0RGR-i4.0 miles 0°2020-03-20 12:53:26 KD0UGB-74.3 miles 25°2020-03-29 16:45:10
W0AMB4.3 miles 7°2020-03-31 10:10:02 N7EXL-105.1 miles 15°2020-03-28 15:48:47
KD0YOZ B5.5 miles 15°2020-03-29 22:17:18 KD0YOZ-B5.5 miles 15°2020-03-29 22:17:28
KD0YOZ-N5.5 miles 15°2020-03-29 22:07:32 KD0YOZ-55.5 miles 14°2020-03-29 22:26:19
KD0YOZ5.6 miles 14°2020-03-14 12:44:11 W0JMR B5.6 miles 358°2020-03-06 17:37:02
W0JMR-B5.6 miles 358°2020-03-06 17:37:12 CW85445.6 miles 353°2020-03-31 14:13:31
KE0PBI-105.8 miles 2°2020-03-31 13:24:30 KD0YRF-RC5.8 miles 356°2020-03-31 14:21:05
W0KOA6.5 miles 80°2020-03-26 16:27:49 W0MXW B6.5 miles 4°2020-03-31 14:08:21
W0MXW-B6.5 miles 4°2020-03-31 14:08:06 146.820-R6.8 miles 4°2020-03-31 14:12:39
Stations which heard K0RPD-7 directly on radio –
callsign pkts first heard - EDT last heard longest (tx => rx) longest at - EDT
WB9TLH-11 1 2020-03-01 13:17:26 2020-03-01 13:17:26 EM68LF > EM69QB 61.0 miles 20° 2020-03-01 13:17:26
N0HZN 1 2020-03-01 16:42:09 2020-03-01 16:42:09 EN33SV > EN34RA 11.1 miles 338° 2020-03-01 16:42:09
N9UMJ-10 3 2020-03-01 12:46:47 2020-03-01 13:12:23 EM67VH > EM68QR 102.9 miles 347° 2020-03-01 12:46:47
W1ARN-1 6 2020-03-01 12:05:56 2020-03-01 12:57:12 EM67SO > EM66SL 79.0 miles 179° 2020-03-01 12:57:12
AE0TB-6 1 2020-03-01 16:06:40 2020-03-01 16:06:40 EN42GX > EN32QH 71.4 miles 232° 2020-03-01 16:06:40
WA9SDJ-5 2 2020-03-01 13:42:47 2020-03-01 13:47:55 EM68EX > EM69IN 44.7 miles 26° 2020-03-01 13:42:47
N9CVA-10 5 2020-03-01 12:26:08 2020-03-01 13:07:18 EM76DQ > EM78BI 116.4 miles 357° 2020-03-01 12:26:08
W0MXW-3 31 2020-03-01 16:47:11 2020-03-03 23:42:25 EN33SW > EN33QW 8.1 miles 266° 2020-03-03 23:42:25
W0NE-1 4 2020-03-01 16:16:46 2020-03-01 16:37:04 EN43CF > EN43EW 50.5 miles 10° 2020-03-01 16:16:46
WB0MPE-7 5 2020-03-03 22:06:59 2020-03-03 23:32:23 EN33SW > EN34TC 11.5 miles 18° 2020-03-03 23:32:23
W0MCW-3 1 2020-03-01 16:32:04 2020-03-01 16:32:04 EN33VP > EN33ND 49.4 miles 226° 2020-03-01 16:32:04
WB9EOC-10 6 2020-03-01 13:22:30 2020-03-01 13:47:55 EM68KJ > EM69NP 86.5 miles 9° 2020-03-01 13:22:30
KW2DX-3 2 2020-03-01 15:20:49 2020-03-01 15:41:07 EN42OG > EN41VV 42.3 miles 129° 2020-03-01 15:41:07
N9VPV-10 1 2020-03-01 15:00:07 2020-03-01 15:00:07 EN51DE > EN40TW 38.3 miles 246° 2020-03-01 15:00:07
W0NE-2 2 2020-03-01 15:56:27 2020-03-01 16:01:32 EN42JQ > EN44CA 95.1 miles 342° 2020-03-01 15:56:27
KD0ION 1 2020-03-01 15:26:00 2020-03-01 15:26:00 EN41SV > EN42FD 59.9 miles 287° 2020-03-01 15:26:00
KC8RFE-3 4 2020-03-01 13:58:05 2020-03-01 14:39:33 EM59XJ > EN50PA 53.6 miles 325° 2020-03-01 13:58:05
KM4BJZ-1 1 2020-03-01 12:00:55 2020-03-01 12:00:55 EM76JA > EM75FH 52.4 miles 205° 2020-03-01 12:00:55
KW0O-12 4 2020-03-01 15:31:04 2020-03-01 15:51:25 EN42RA > EN42EA 53.8 miles 270° 2020-03-01 15:31:04
KS9A-10 6 2020-03-01 14:24:29 2020-03-01 15:10:43 EN50OD > EN40XN 72.2 miles 294° 2020-03-01 14:24:29
KC9JAO-2 1 2020-03-01 15:15:48 2020-03-01 15:15:48 EN41WO > EN41XS 9.8 miles 24° 2020-03-01 15:15:48
W9IPA-11 5 2020-03-01 13:52:57 2020-03-01 14:18:51 EM69AG > EN50VC 60.6 miles 346° 2020-03-01 13:52:57

Only position packets which were originated by the station are shown here. The range statistics show some extra long hops, because some digipeaters do not correctly add themselves to the digipeater path. Please check the raw packets.
About this site
This page shows real-time information collected from the Automatic Position Reporting System Internet network (APRS-IS). APRS is used by amateur (ham) radio operators to transmit real-time position information, weather data, telemetry and messages over the radio. A vehicle equipped with a GPS receiver, a VHF transmitter or HF transceiver and a small computer device called a tracker transmits it's location, speed and course in a small data packet, which is then received by a nearby iGate receiving site which forwards the packet on the Internet. Systems connected to the Internet can send information on the APRS-IS without a radio transmitter, or collect and display information transmitted anywhere in the world.
User guide · FAQ · Blog · Discussion group · Linking to aprs.fi · AIS sites · Service status · Database statistics · Advertising on aprs.fi · Technical details · API · Change log · Planned changes · Credits and thanks · Terms Of Service · iPhone/iPad APRS